createdAt,value
2023-02-19T00:00:08.028Z,99.90
2023-02-19T00:02:35.573Z,99.90
2023-02-19T00:05:02.307Z,99.90
2023-02-19T00:07:28.986Z,99.90
2023-02-19T00:09:55.664Z,99.90
2023-02-19T00:12:22.264Z,99.90
2023-02-19T00:14:48.935Z,99.90
2023-02-19T00:17:15.566Z,99.90
2023-02-19T00:19:42.220Z,99.90
2023-02-19T00:22:08.847Z,99.90
2023-02-19T00:24:35.440Z,99.90
2023-02-19T00:27:02.057Z,99.90
2023-02-19T00:29:28.679Z,99.90
2023-02-19T00:31:55.511Z,99.90
2023-02-19T00:34:22.151Z,99.90
2023-02-19T00:36:48.812Z,99.90
2023-02-19T00:39:16.176Z,99.90
2023-02-19T00:41:43.352Z,99.90
2023-02-19T00:44:10.556Z,99.90
2023-02-19T00:46:38.636Z,99.90
2023-02-19T00:49:06.219Z,99.90
2023-02-19T00:51:34.941Z,99.90
2023-02-19T00:54:01.606Z,99.90
2023-02-19T00:56:28.516Z,99.90
2023-02-19T00:58:55.233Z,99.90
2023-02-19T01:01:21.928Z,99.90
2023-02-19T01:03:48.886Z,99.90
2023-02-19T01:06:17.100Z,99.90
2023-02-19T01:08:44.026Z,99.90
2023-02-19T01:11:11.773Z,99.90
2023-02-19T01:13:39.102Z,99.90
2023-02-19T01:16:07.834Z,99.90
2023-02-19T01:18:34.611Z,99.90
2023-02-19T01:21:05.025Z,99.90
2023-02-19T01:23:31.706Z,99.90
2023-02-19T01:25:58.337Z,99.90
2023-02-19T01:28:25.103Z,99.90
2023-02-19T01:30:51.742Z,99.90
2023-02-19T01:33:18.476Z,99.90
2023-02-19T01:35:45.146Z,99.90
2023-02-19T01:38:11.754Z,99.90
2023-02-19T01:40:38.400Z,99.90
2023-02-19T01:43:06.116Z,99.90
2023-02-19T01:45:34.113Z,99.90
2023-02-19T01:48:12.814Z,99.90
2023-02-19T01:51:09.137Z,99.90
2023-02-19T01:53:39.345Z,99.90
2023-02-19T01:56:07.150Z,99.90
2023-02-19T01:58:34.935Z,99.90
2023-02-19T02:01:02.925Z,99.90
2023-02-19T02:03:29.936Z,99.90
2023-02-19T02:05:56.540Z,99.90
2023-02-19T02:08:42.572Z,99.90
2023-02-19T02:11:09.621Z,99.90
2023-02-19T02:13:36.741Z,99.90
2023-02-19T02:16:21.919Z,99.90
2023-02-19T02:18:51.570Z,99.90
2023-02-19T02:21:18.169Z,99.90
2023-02-19T02:23:44.767Z,99.90
2023-02-19T02:26:22.292Z,99.90
2023-02-19T02:28:51.908Z,99.90
2023-02-19T02:31:20.276Z,99.90
2023-02-19T02:34:16.354Z,99.90
2023-02-19T02:36:44.557Z,99.90
2023-02-19T02:39:12.247Z,99.90
2023-02-19T02:41:43.323Z,99.90
2023-02-19T02:44:10.039Z,99.90
2023-02-19T02:46:38.541Z,99.90
2023-02-19T02:49:06.433Z,99.90
2023-02-19T02:51:41.467Z,99.90
2023-02-19T02:54:29.357Z,99.90
2023-02-19T02:56:56.485Z,99.90
2023-02-19T02:59:25.067Z,99.90
2023-02-19T03:02:18.662Z,99.90
2023-02-19T03:05:03.903Z,99.90
2023-02-19T03:07:33.901Z,99.90
2023-02-19T03:10:02.029Z,99.90
2023-02-19T03:12:48.498Z,99.90
2023-02-19T03:15:35.149Z,99.90
2023-02-19T03:18:22.293Z,99.90
2023-02-19T03:20:51.633Z,99.90
2023-02-19T03:23:20.194Z,99.90
2023-02-19T03:26:05.153Z,99.90
2023-02-19T03:28:51.550Z,99.90
2023-02-19T03:31:19.557Z,99.90
2023-02-19T03:33:48.459Z,99.90
2023-02-19T03:36:18.911Z,99.90
2023-02-19T03:38:52.607Z,99.90
2023-02-19T03:41:26.397Z,99.90
2023-02-19T03:44:01.700Z,99.90
2023-02-19T03:46:47.114Z,99.90
2023-02-19T03:49:23.727Z,99.90
2023-02-19T03:51:54.243Z,99.90
2023-02-19T03:54:24.832Z,99.90
2023-02-19T03:56:59.090Z,99.90
2023-02-19T03:59:37.890Z,99.90
2023-02-19T04:02:15.792Z,99.90
2023-02-19T04:04:51.322Z,99.90
2023-02-19T04:07:18.029Z,99.90
2023-02-19T04:09:46.826Z,99.90
2023-02-19T04:12:14.726Z,99.90
2023-02-19T04:14:50.365Z,99.90
2023-02-19T04:17:18.945Z,99.90
2023-02-19T04:19:46.540Z,99.90
2023-02-19T04:22:14.005Z,99.90
2023-02-19T04:24:42.771Z,99.90
2023-02-19T04:27:10.089Z,99.90
2023-02-19T04:29:39.088Z,99.90
2023-02-19T04:32:06.301Z,99.90
2023-02-19T04:34:33.288Z,99.90
2023-02-19T04:36:59.909Z,99.90
2023-02-19T04:39:26.529Z,99.90
2023-02-19T04:41:53.201Z,99.90
2023-02-19T04:44:19.906Z,99.90
2023-02-19T04:46:46.489Z,99.90
2023-02-19T04:49:13.139Z,99.90
2023-02-19T04:51:40.319Z,99.90
2023-02-19T04:54:06.967Z,99.90
2023-02-19T04:56:33.645Z,99.90
2023-02-19T04:59:00.289Z,99.90
2023-02-19T05:01:26.983Z,99.90
2023-02-19T05:03:53.648Z,99.90
2023-02-19T05:06:20.398Z,99.90
2023-02-19T05:08:47.076Z,99.90
2023-02-19T05:11:13.803Z,99.90
2023-02-19T05:13:40.674Z,99.90
2023-02-19T05:16:09.629Z,99.90
2023-02-19T05:18:36.302Z,99.90
2023-02-19T05:21:03.081Z,99.90
2023-02-19T05:23:29.716Z,99.90
2023-02-19T05:25:56.416Z,99.90
2023-02-19T05:28:28.633Z,99.90
2023-02-19T05:30:55.765Z,99.90
2023-02-19T05:33:23.682Z,99.90
2023-02-19T05:35:51.918Z,99.90
2023-02-19T05:38:19.019Z,99.90
2023-02-19T05:40:45.905Z,99.90
2023-02-19T05:43:12.726Z,99.90
2023-02-19T05:45:39.416Z,99.90
2023-02-19T05:48:06.456Z,99.90
2023-02-19T05:50:34.411Z,99.90
2023-02-19T05:53:01.766Z,99.90
2023-02-19T05:55:28.824Z,99.90
2023-02-19T05:57:55.414Z,99.90
2023-02-19T06:00:22.438Z,99.90
2023-02-19T06:02:49.122Z,99.90
2023-02-19T06:05:15.830Z,99.90
2023-02-19T06:07:42.965Z,99.90
2023-02-19T06:10:10.707Z,99.90
2023-02-19T06:12:37.762Z,99.90
2023-02-19T06:15:05.339Z,99.90
2023-02-19T06:17:32.588Z,99.90
2023-02-19T06:19:59.176Z,99.90
2023-02-19T06:22:26.175Z,99.90
2023-02-19T06:24:52.856Z,99.90
2023-02-19T06:27:19.638Z,99.90
2023-02-19T06:29:46.256Z,99.90
2023-02-19T06:32:12.960Z,99.90
2023-02-19T06:34:39.622Z,99.90
2023-02-19T06:37:06.304Z,99.90
2023-02-19T06:39:32.938Z,99.90
2023-02-19T06:41:59.573Z,99.90
2023-02-19T06:44:26.198Z,99.90
2023-02-19T06:46:55.020Z,99.90
2023-02-19T06:49:21.819Z,99.90
2023-02-19T06:51:48.472Z,99.90
2023-02-19T06:54:15.085Z,99.90
2023-02-19T06:56:41.938Z,99.90
2023-02-19T06:59:10.769Z,99.90
2023-02-19T07:01:37.428Z,99.90
2023-02-19T07:04:04.191Z,99.90
2023-02-19T07:06:30.997Z,99.90
2023-02-19T07:08:58.274Z,99.90
2023-02-19T07:11:25.372Z,99.90
2023-02-19T07:13:55.913Z,99.90
2023-02-19T07:16:23.011Z,99.90
2023-02-19T07:18:49.655Z,99.90
2023-02-19T07:21:17.025Z,99.90
2023-02-19T07:23:44.111Z,99.90
2023-02-19T07:26:15.614Z,99.90
2023-02-19T07:28:45.972Z,99.90
2023-02-19T07:31:13.734Z,99.90
2023-02-19T07:33:42.757Z,99.90
2023-02-19T07:36:09.455Z,99.90
2023-02-19T07:38:36.082Z,99.90
2023-02-19T07:41:03.824Z,99.90
2023-02-19T07:43:33.377Z,99.90
2023-02-19T07:46:02.682Z,99.90
2023-02-19T07:48:29.323Z,99.90
2023-02-19T07:50:56.817Z,99.90
2023-02-19T07:53:24.121Z,99.90
2023-02-19T07:55:50.842Z,99.90
2023-02-19T07:58:17.684Z,99.90
2023-02-19T08:00:44.550Z,99.90
2023-02-19T08:03:11.675Z,99.90
2023-02-19T08:05:39.507Z,99.90
2023-02-19T08:08:06.915Z,99.90
2023-02-19T08:10:52.181Z,99.90
2023-02-19T08:13:28.213Z,99.90
2023-02-19T08:16:17.045Z,99.90
2023-02-19T08:18:47.623Z,99.90
2023-02-19T08:21:14.631Z,99.90
2023-02-19T08:23:41.303Z,99.90
2023-02-19T08:26:08.612Z,99.90
2023-02-19T08:28:35.985Z,99.90
2023-02-19T08:31:04.093Z,99.90
2023-02-19T08:33:30.834Z,99.90
2023-02-19T08:36:01.140Z,99.90
2023-02-19T08:38:27.763Z,99.90
2023-02-19T08:40:54.376Z,99.90
2023-02-19T08:43:21.029Z,99.90
2023-02-19T08:45:47.715Z,99.90
2023-02-19T08:48:14.561Z,99.90
2023-02-19T08:50:41.193Z,99.90
2023-02-19T08:53:07.831Z,99.90
2023-02-19T08:55:34.445Z,99.90
2023-02-19T08:58:01.124Z,99.90
2023-02-19T09:00:27.840Z,99.90
2023-02-19T09:02:54.478Z,99.90
2023-02-19T09:05:21.080Z,99.90
2023-02-19T09:07:47.734Z,99.90
2023-02-19T09:10:14.432Z,99.90
2023-02-19T09:12:41.413Z,99.90
2023-02-19T09:15:08.144Z,99.90
2023-02-19T09:17:34.822Z,99.90
2023-02-19T09:20:01.449Z,99.90
2023-02-19T09:22:28.057Z,99.90
2023-02-19T09:24:54.817Z,99.90
2023-02-19T09:27:21.446Z,99.90
2023-02-19T09:29:48.070Z,99.90
2023-02-19T09:32:14.705Z,99.90
2023-02-19T09:34:41.709Z,99.90
2023-02-19T09:37:08.501Z,99.90
2023-02-19T09:39:35.384Z,99.90
2023-02-19T09:42:05.241Z,99.90
2023-02-19T09:44:36.247Z,99.90
2023-02-19T09:47:06.053Z,99.90
2023-02-19T09:49:34.299Z,99.90
2023-02-19T09:52:06.144Z,99.90
2023-02-19T09:54:33.489Z,99.90
2023-02-19T09:57:01.324Z,99.90
2023-02-19T09:59:40.722Z,99.90
2023-02-19T10:02:15.292Z,99.90
2023-02-19T10:04:42.969Z,99.90
2023-02-19T10:07:14.137Z,99.90
2023-02-19T10:09:41.104Z,99.90
2023-02-19T10:12:20.378Z,99.90
2023-02-19T10:14:49.422Z,99.90
2023-02-19T10:17:22.164Z,99.90
2023-02-19T10:19:49.026Z,99.90
2023-02-19T10:22:15.639Z,99.90
2023-02-19T10:24:43.066Z,99.90
2023-02-19T10:27:11.981Z,99.90
2023-02-19T10:29:39.749Z,99.90
2023-02-19T10:32:13.700Z,99.90
2023-02-19T10:34:40.373Z,99.90
2023-02-19T10:37:11.295Z,99.90
2023-02-19T10:39:48.588Z,99.90
2023-02-19T10:42:20.568Z,99.90
2023-02-19T10:44:49.626Z,99.90
2023-02-19T10:47:18.216Z,99.90
2023-02-19T10:49:46.356Z,99.90
2023-02-19T10:52:19.913Z,99.90
2023-02-19T10:54:49.322Z,99.90
2023-02-19T10:57:15.943Z,99.90
2023-02-19T10:59:49.816Z,99.90
2023-02-19T11:02:17.424Z,99.90
2023-02-19T11:05:02.240Z,99.90
2023-02-19T11:07:29.085Z,99.90
2023-02-19T11:09:56.436Z,99.90
2023-02-19T11:12:28.253Z,99.70
2023-02-19T11:14:55.155Z,99.30
2023-02-19T11:17:26.145Z,99.90
2023-02-19T11:19:56.820Z,99.60
2023-02-19T11:22:29.529Z,99.10
2023-02-19T11:24:59.326Z,99.90
2023-02-19T11:27:26.206Z,99.90
2023-02-19T11:29:52.829Z,99.90
2023-02-19T11:32:32.310Z,99.90
2023-02-19T11:35:17.624Z,99.90
2023-02-19T11:38:10.658Z,99.90
2023-02-19T11:40:56.092Z,99.90
2023-02-19T11:43:25.699Z,99.90
2023-02-19T11:45:58.514Z,99.90
2023-02-19T11:48:25.106Z,99.90
2023-02-19T11:50:54.773Z,99.90
2023-02-19T11:53:28.708Z,99.90
2023-02-19T11:56:01.457Z,99.60
2023-02-19T11:58:34.287Z,99.00
2023-02-19T12:01:18.371Z,99.40
2023-02-19T12:03:48.166Z,99.20
2023-02-19T12:06:19.176Z,98.60
2023-02-19T12:09:01.106Z,99.70
2023-02-19T12:11:36.683Z,98.50
2023-02-19T12:14:09.472Z,98.40
2023-02-19T12:16:51.355Z,98.20
2023-02-19T12:19:42.368Z,98.00
2023-02-19T12:22:12.125Z,97.90
2023-02-19T12:24:55.053Z,97.50
2023-02-19T12:27:45.047Z,97.50
2023-02-19T12:30:17.989Z,97.20
2023-02-19T12:32:47.648Z,96.60
2023-02-19T12:35:47.164Z,96.60
2023-02-19T12:38:13.776Z,96.50
2023-02-19T12:40:55.842Z,97.20
2023-02-19T12:43:23.195Z,97.60
2023-02-19T12:45:52.980Z,97.40
2023-02-19T12:48:19.639Z,97.80
2023-02-19T12:50:48.768Z,97.80
2023-02-19T12:53:34.202Z,98.00
2023-02-19T12:56:03.142Z,98.70
2023-02-19T12:58:37.771Z,99.30
2023-02-19T13:01:05.721Z,99.90
2023-02-19T13:03:34.639Z,99.90
2023-02-19T13:06:11.487Z,99.90
2023-02-19T13:08:42.079Z,99.90
2023-02-19T13:11:21.532Z,99.90
2023-02-19T13:13:58.782Z,99.90
2023-02-19T13:16:26.081Z,99.90
2023-02-19T13:18:55.893Z,99.90
2023-02-19T13:21:42.400Z,99.50
2023-02-19T13:24:14.990Z,99.10
2023-02-19T13:26:50.881Z,98.70
2023-02-19T13:29:36.379Z,99.00
2023-02-19T13:32:18.308Z,98.60
2023-02-19T13:35:03.834Z,98.50
2023-02-19T13:37:34.578Z,98.20
2023-02-19T13:40:21.653Z,97.50
2023-02-19T13:42:53.750Z,97.60
2023-02-19T13:45:31.566Z,97.40
2023-02-19T13:47:58.170Z,96.90
2023-02-19T13:50:26.176Z,97.20
2023-02-19T13:52:56.575Z,97.50
2023-02-19T13:55:42.604Z,98.50
2023-02-19T13:58:27.933Z,99.20
2023-02-19T14:00:55.030Z,99.70
2023-02-19T14:03:27.758Z,99.90
2023-02-19T14:05:59.137Z,99.90
2023-02-19T14:08:44.455Z,99.90
2023-02-19T14:11:14.239Z,99.90
2023-02-19T14:13:49.828Z,99.90
2023-02-19T14:16:37.911Z,99.90
2023-02-19T14:19:13.322Z,99.90
2023-02-19T14:21:40.596Z,99.90
2023-02-19T14:24:11.786Z,99.90
2023-02-19T14:26:39.516Z,99.90
2023-02-19T14:29:08.074Z,99.90
2023-02-19T14:31:36.783Z,99.90
2023-02-19T14:34:13.909Z,99.90
2023-02-19T14:37:01.323Z,99.90
2023-02-19T14:39:33.117Z,99.90
2023-02-19T14:42:05.226Z,99.90
2023-02-19T14:44:40.465Z,99.90
2023-02-19T14:47:09.411Z,99.90
2023-02-19T14:49:43.446Z,99.90
2023-02-19T14:52:32.320Z,99.90
2023-02-19T14:55:00.919Z,99.90
2023-02-19T14:57:29.622Z,99.90
2023-02-19T15:00:00.670Z,99.90
2023-02-19T15:02:28.651Z,99.90
2023-02-19T15:04:55.537Z,99.90
2023-02-19T15:07:29.602Z,99.90
2023-02-19T15:10:02.916Z,99.90
2023-02-19T15:12:39.276Z,99.90
2023-02-19T15:15:06.918Z,99.90
2023-02-19T15:17:34.265Z,99.90
2023-02-19T15:20:04.882Z,99.90
2023-02-19T15:22:32.561Z,99.90
2023-02-19T15:25:03.026Z,99.90
2023-02-19T15:27:30.071Z,99.90
2023-02-19T15:29:56.814Z,99.90
2023-02-19T15:32:26.140Z,99.90
2023-02-19T15:34:53.742Z,99.90
2023-02-19T15:37:20.501Z,99.90
2023-02-19T15:39:48.469Z,99.90
2023-02-19T15:42:17.136Z,99.90
2023-02-19T15:44:59.337Z,99.90
2023-02-19T15:47:29.789Z,99.90
2023-02-19T15:50:05.668Z,99.90
2023-02-19T15:52:36.153Z,99.90
2023-02-19T15:55:11.989Z,99.90
2023-02-19T15:57:41.798Z,99.90
2023-02-19T16:00:11.505Z,99.90
2023-02-19T16:02:38.299Z,99.90
2023-02-19T16:05:12.028Z,99.90
2023-02-19T16:07:38.672Z,99.90
2023-02-19T16:10:24.161Z,99.90
2023-02-19T16:13:01.115Z,99.90
2023-02-19T16:15:28.647Z,99.90
2023-02-19T16:17:56.162Z,99.90
2023-02-19T16:20:24.529Z,99.90
2023-02-19T16:22:51.838Z,99.90
2023-02-19T16:25:24.090Z,99.90
2023-02-19T16:27:50.752Z,99.90
2023-02-19T16:30:17.452Z,99.90
2023-02-19T16:32:45.331Z,99.90
2023-02-19T16:35:30.761Z,99.90
2023-02-19T16:37:58.199Z,99.90
2023-02-19T16:40:24.784Z,99.90
2023-02-19T16:42:51.978Z,99.90
2023-02-19T16:45:18.844Z,99.90
2023-02-19T16:47:48.466Z,99.90
2023-02-19T16:50:16.335Z,99.90
2023-02-19T16:53:00.220Z,99.90
2023-02-19T16:55:27.264Z,99.90
2023-02-19T16:57:54.250Z,99.90
2023-02-19T17:00:22.118Z,99.90
2023-02-19T17:02:50.048Z,99.90
2023-02-19T17:05:17.858Z,99.90
2023-02-19T17:07:44.567Z,99.90
2023-02-19T17:10:13.945Z,99.90
2023-02-19T17:12:40.543Z,99.90
2023-02-19T17:15:07.355Z,99.90
2023-02-19T17:17:34.672Z,99.90
2023-02-19T17:20:01.281Z,99.90
2023-02-19T17:22:27.901Z,99.90
2023-02-19T17:24:55.166Z,99.90
2023-02-19T17:27:21.802Z,99.90
2023-02-19T17:29:48.429Z,99.90
2023-02-19T17:32:15.335Z,99.90
2023-02-19T17:34:42.049Z,99.90
2023-02-19T17:37:08.680Z,99.90
2023-02-19T17:39:35.353Z,99.90
2023-02-19T17:42:02.244Z,99.90
2023-02-19T17:44:28.856Z,99.90
2023-02-19T17:46:55.524Z,99.90
2023-02-19T17:49:22.208Z,99.90
2023-02-19T17:51:48.840Z,99.90
2023-02-19T17:54:15.453Z,99.90
2023-02-19T17:56:43.350Z,99.90
2023-02-19T17:59:10.962Z,99.90
2023-02-19T18:01:37.931Z,99.90
2023-02-19T18:04:04.973Z,99.90
2023-02-19T18:06:31.693Z,99.90
2023-02-19T18:08:58.361Z,99.90
2023-02-19T18:11:24.936Z,99.90
2023-02-19T18:13:52.032Z,99.90
2023-02-19T18:16:19.200Z,99.90
2023-02-19T18:18:46.320Z,99.90
2023-02-19T18:21:13.557Z,99.90
2023-02-19T18:23:40.523Z,99.90
2023-02-19T18:26:08.648Z,99.90
2023-02-19T18:28:35.628Z,99.90
2023-02-19T18:31:02.443Z,99.90
2023-02-19T18:33:29.181Z,99.90
2023-02-19T18:35:55.781Z,99.90
2023-02-19T18:38:22.445Z,99.90
2023-02-19T18:40:49.049Z,99.90
2023-02-19T18:43:15.678Z,99.90
2023-02-19T18:45:43.354Z,99.90
2023-02-19T18:48:10.149Z,99.90
2023-02-19T18:50:37.863Z,99.90
2023-02-19T18:53:04.517Z,99.90
2023-02-19T18:55:31.242Z,99.90
2023-02-19T18:57:57.853Z,99.90
2023-02-19T19:00:26.441Z,99.90
2023-02-19T19:02:57.081Z,99.90
2023-02-19T19:05:23.951Z,99.90
2023-02-19T19:07:55.222Z,99.90
2023-02-19T19:10:22.988Z,99.90
2023-02-19T19:12:49.796Z,99.90
2023-02-19T19:15:18.509Z,99.90
2023-02-19T19:17:45.414Z,99.90
2023-02-19T19:20:12.209Z,99.90
2023-02-19T19:22:38.884Z,99.90
2023-02-19T19:25:05.873Z,99.90
2023-02-19T19:27:32.507Z,99.90
2023-02-19T19:29:59.134Z,99.90
2023-02-19T19:32:25.835Z,99.90
2023-02-19T19:34:52.529Z,99.90
2023-02-19T19:37:19.198Z,99.90
2023-02-19T19:39:45.838Z,99.90
2023-02-19T19:42:12.459Z,99.90
2023-02-19T19:44:39.243Z,99.90
2023-02-19T19:47:05.899Z,99.90
2023-02-19T19:49:33.401Z,99.90
2023-02-19T19:52:01.160Z,99.90
2023-02-19T19:54:28.412Z,99.90
2023-02-19T19:56:55.175Z,99.90
2023-02-19T19:59:23.057Z,99.90
2023-02-19T20:01:50.945Z,99.90
2023-02-19T20:04:18.244Z,99.90
2023-02-19T20:06:44.858Z,99.90
2023-02-19T20:09:11.928Z,99.90
2023-02-19T20:11:48.855Z,99.90
2023-02-19T20:14:15.866Z,99.90
2023-02-19T20:16:44.658Z,99.90
2023-02-19T20:19:11.424Z,99.90
2023-02-19T20:21:38.032Z,99.90
2023-02-19T20:24:04.869Z,99.90
2023-02-19T20:26:32.219Z,99.90
2023-02-19T20:28:58.894Z,99.90
2023-02-19T20:31:25.868Z,99.90
2023-02-19T20:33:52.670Z,99.90
2023-02-19T20:36:20.197Z,99.90
2023-02-19T20:38:47.258Z,99.90
2023-02-19T20:41:14.148Z,99.90
2023-02-19T20:43:40.862Z,99.90
2023-02-19T20:46:07.748Z,99.90
2023-02-19T20:48:34.444Z,99.90
2023-02-19T20:51:01.301Z,99.90
2023-02-19T20:53:28.568Z,99.90
2023-02-19T20:55:56.137Z,99.90
2023-02-19T20:58:23.380Z,99.90
2023-02-19T21:00:50.118Z,99.90
2023-02-19T21:03:16.815Z,99.90
2023-02-19T21:05:43.629Z,99.90
2023-02-19T21:08:11.743Z,99.90
2023-02-19T21:10:38.895Z,99.90
2023-02-19T21:13:05.581Z,99.90
2023-02-19T21:15:32.241Z,99.90
2023-02-19T21:17:58.857Z,99.90
2023-02-19T21:20:25.438Z,99.90
2023-02-19T21:22:52.078Z,99.90
2023-02-19T21:25:18.705Z,99.90
2023-02-19T21:27:45.307Z,99.90
2023-02-19T21:30:12.131Z,99.90
2023-02-19T21:32:38.784Z,99.90
2023-02-19T21:35:05.898Z,99.90
2023-02-19T21:37:32.509Z,99.90
2023-02-19T21:40:00.462Z,99.90
2023-02-19T21:42:27.313Z,99.90
2023-02-19T21:44:54.023Z,99.90
2023-02-19T21:47:20.620Z,99.90
2023-02-19T21:49:47.237Z,99.90
2023-02-19T21:52:13.905Z,99.90
2023-02-19T21:54:40.515Z,99.90
2023-02-19T21:57:09.264Z,99.90
2023-02-19T21:59:35.902Z,99.90
2023-02-19T22:02:02.528Z,99.90
2023-02-19T22:04:29.178Z,99.90
2023-02-19T22:06:56.511Z,99.90
2023-02-19T22:09:23.416Z,99.90
2023-02-19T22:11:50.128Z,99.90
2023-02-19T22:14:16.786Z,99.90
2023-02-19T22:16:43.499Z,99.90
2023-02-19T22:19:12.060Z,99.90
2023-02-19T22:21:41.693Z,99.90
2023-02-19T22:24:13.454Z,99.90
2023-02-19T22:26:40.122Z,99.90
2023-02-19T22:29:08.247Z,99.90
2023-02-19T22:31:35.349Z,99.90
2023-02-19T22:34:02.272Z,99.90
2023-02-19T22:36:33.276Z,99.90
2023-02-19T22:39:00.400Z,99.90
2023-02-19T22:41:27.078Z,99.90
2023-02-19T22:43:54.911Z,99.90
2023-02-19T22:46:22.626Z,99.90
2023-02-19T22:48:49.607Z,99.90
2023-02-19T22:51:20.708Z,99.90
2023-02-19T22:53:48.494Z,99.90
2023-02-19T22:56:15.724Z,99.90
2023-02-19T22:58:42.633Z,99.90
2023-02-19T23:01:12.989Z,99.90
2023-02-19T23:03:53.306Z,99.90
2023-02-19T23:06:27.365Z,99.90
2023-02-19T23:08:54.966Z,99.90
2023-02-19T23:11:26.346Z,99.90
2023-02-19T23:13:53.423Z,99.90
2023-02-19T23:16:20.525Z,99.90
2023-02-19T23:18:47.218Z,99.90
2023-02-19T23:21:13.886Z,99.90
2023-02-19T23:23:41.300Z,99.90
2023-02-19T23:26:08.206Z,99.90
2023-02-19T23:28:34.977Z,99.90
2023-02-19T23:31:01.812Z,99.90
2023-02-19T23:33:28.564Z,99.90
2023-02-19T23:35:55.179Z,99.90
2023-02-19T23:38:21.818Z,99.90
2023-02-19T23:40:48.589Z,99.90
2023-02-19T23:43:15.232Z,99.90
2023-02-19T23:45:41.966Z,99.90
2023-02-19T23:48:08.661Z,99.90
2023-02-19T23:50:35.265Z,99.90
2023-02-19T23:53:01.906Z,99.90
2023-02-19T23:55:28.589Z,99.90
2023-02-19T23:57:55.217Z,99.90
